YVR weather

Vancouver International Airport
Vancouver, British Columbia, Canada

Public forecast

Using degrees Celsius for public forecast. Weather courtesy of forecast.io.

METAR (pilot weather report)

Retrieved 2018/04/21 05:00 UTC (22 minutes ago):

CYVR 210500Z 07007KT 15SM BKN042 OVC075 09/07 A3011 RMK SC5AC3 SLP196

TAF (pilot weather forecast)

Retrieved 2018/04/21 03:40 UTC (2 hours ago):

TAF CYVR 210238Z 2103/2206 VRB03KT P6SM -RA FEW020 BKN040 OVC060 FM210600 07008KT P6SM -RA SCT015 OVC040 TEMPO 2106/2112 6SM -SHRA BR FEW007 BKN015 OVC040 BECMG 2110/2112 21015G25KT FM211200 23015G25KT P6SM BKN060 FM211800 27012G22KT P6SM SCT060 BECMG 2120/2122 23008KT BECMG 2201/2203 09008KT RMK NXT FCST BY 210600Z